sensor_id;sensor_type;location;lat;lon;timestamp;P1;durP1;ratioP1;P2;durP2;ratioP2
75680;SDS011;64294;49.176;16.626;2023-03-26T00:01:26;6.50;;;3.97;;
75680;SDS011;64294;49.176;16.626;2023-03-26T00:03:53;9.73;;;4.00;;
75680;SDS011;64294;49.176;16.626;2023-03-26T00:06:22;7.13;;;3.90;;
75680;SDS011;64294;49.176;16.626;2023-03-26T00:08:50;6.63;;;3.50;;
75680;SDS011;64294;49.176;16.626;2023-03-26T00:11:17;7.95;;;4.28;;
75680;SDS011;64294;49.176;16.626;2023-03-26T00:13:45;9.13;;;4.60;;
75680;SDS011;64294;49.176;16.626;2023-03-26T00:16:12;8.95;;;4.90;;
75680;SDS011;64294;49.176;16.626;2023-03-26T00:18:42;10.05;;;5.70;;
75680;SDS011;64294;49.176;16.626;2023-03-26T00:21:09;15.73;;;8.43;;
75680;SDS011;64294;49.176;16.626;2023-03-26T00:23:38;12.80;;;8.10;;
75680;SDS011;64294;49.176;16.626;2023-03-26T00:26:03;17.85;;;10.68;;
75680;SDS011;64294;49.176;16.626;2023-03-26T00:28:38;16.77;;;10.57;;
75680;SDS011;64294;49.176;16.626;2023-03-26T00:31:06;12.90;;;7.22;;
75680;SDS011;64294;49.176;16.626;2023-03-26T00:33:33;11.10;;;7.53;;
75680;SDS011;64294;49.176;16.626;2023-03-26T00:36:03;12.95;;;7.85;;
75680;SDS011;64294;49.176;16.626;2023-03-26T00:38:35;13.38;;;8.57;;
75680;SDS011;64294;49.176;16.626;2023-03-26T00:41:03;13.70;;;7.80;;
75680;SDS011;64294;49.176;16.626;2023-03-26T00:43:31;17.58;;;10.95;;
75680;SDS011;64294;49.176;16.626;2023-03-26T00:46:01;17.42;;;9.52;;
75680;SDS011;64294;49.176;16.626;2023-03-26T00:48:27;15.05;;;10.15;;
75680;SDS011;64294;49.176;16.626;2023-03-26T00:50:58;16.77;;;9.02;;
75680;SDS011;64294;49.176;16.626;2023-03-26T00:53:23;14.32;;;8.90;;
75680;SDS011;64294;49.176;16.626;2023-03-26T00:55:49;13.05;;;8.10;;
75680;SDS011;64294;49.176;16.626;2023-03-26T00:58:15;17.20;;;7.32;;
75680;SDS011;64294;49.176;16.626;2023-03-26T01:00:51;11.13;;;6.50;;
75680;SDS011;64294;49.176;16.626;2023-03-26T01:03:23;13.48;;;7.35;;
75680;SDS011;64294;49.176;16.626;2023-03-26T01:05:51;9.98;;;6.55;;
75680;SDS011;64294;49.176;16.626;2023-03-26T01:08:33;21.92;;;11.77;;
75680;SDS011;64294;49.176;16.626;2023-03-26T01:11:07;11.77;;;6.88;;
75680;SDS011;64294;49.176;16.626;2023-03-26T01:13:39;9.27;;;4.78;;
75680;SDS011;64294;49.176;16.626;2023-03-26T01:16:12;7.80;;;3.88;;
75680;SDS011;64294;49.176;16.626;2023-03-26T01:18:45;8.38;;;5.18;;
75680;SDS011;64294;49.176;16.626;2023-03-26T01:21:12;9.93;;;4.32;;
75680;SDS011;64294;49.176;16.626;2023-03-26T01:23:45;11.07;;;4.20;;
75680;SDS011;64294;49.176;16.626;2023-03-26T01:28:49;8.55;;;4.20;;
75680;SDS011;64294;49.176;16.626;2023-03-26T01:31:25;7.15;;;3.72;;
75680;SDS011;64294;49.176;16.626;2023-03-26T01:37:13;7.35;;;3.72;;
75680;SDS011;64294;49.176;16.626;2023-03-26T01:40:03;8.85;;;4.00;;
75680;SDS011;64294;49.176;16.626;2023-03-26T01:42:47;8.70;;;3.90;;
75680;SDS011;64294;49.176;16.626;2023-03-26T01:45:31;5.28;;;2.88;;
75680;SDS011;64294;49.176;16.626;2023-03-26T01:48:00;5.18;;;2.80;;
75680;SDS011;64294;49.176;16.626;2023-03-26T01:50:26;7.40;;;3.08;;
75680;SDS011;64294;49.176;16.626;2023-03-26T01:52:51;10.32;;;3.35;;
75680;SDS011;64294;49.176;16.626;2023-03-26T01:55:17;4.30;;;2.38;;
75680;SDS011;64294;49.176;16.626;2023-03-26T01:58:01;4.07;;;2.25;;
75680;SDS011;64294;49.176;16.626;2023-03-26T02:00:48;5.60;;;2.50;;
75680;SDS011;64294;49.176;16.626;2023-03-26T02:03:29;3.97;;;2.20;;
75680;SDS011;64294;49.176;16.626;2023-03-26T02:08:40;4.93;;;2.65;;
75680;SDS011;64294;49.176;16.626;2023-03-26T02:11:12;8.05;;;2.50;;
75680;SDS011;64294;49.176;16.626;2023-03-26T02:13:39;6.43;;;3.05;;
75680;SDS011;64294;49.176;16.626;2023-03-26T02:16:08;9.52;;;4.90;;
75680;SDS011;64294;49.176;16.626;2023-03-26T02:18:38;5.68;;;3.28;;
75680;SDS011;64294;49.176;16.626;2023-03-26T02:21:05;7.20;;;2.92;;
75680;SDS011;64294;49.176;16.626;2023-03-26T02:23:36;6.95;;;2.58;;
75680;SDS011;64294;49.176;16.626;2023-03-26T02:26:08;4.88;;;2.88;;
75680;SDS011;64294;49.176;16.626;2023-03-26T02:28:35;5.15;;;2.78;;
75680;SDS011;64294;49.176;16.626;2023-03-26T02:31:00;5.95;;;2.80;;
75680;SDS011;64294;49.176;16.626;2023-03-26T02:33:27;7.00;;;4.28;;
75680;SDS011;64294;49.176;16.626;2023-03-26T02:35:53;6.90;;;3.72;;
75680;SDS011;64294;49.176;16.626;2023-03-26T02:38:19;8.73;;;4.18;;
75680;SDS011;64294;49.176;16.626;2023-03-26T02:40:44;7.63;;;4.15;;
75680;SDS011;64294;49.176;16.626;2023-03-26T02:43:10;8.57;;;4.68;;
75680;SDS011;64294;49.176;16.626;2023-03-26T02:45:35;6.30;;;3.58;;
75680;SDS011;64294;49.176;16.626;2023-03-26T02:48:01;7.38;;;4.03;;
75680;SDS011;64294;49.176;16.626;2023-03-26T02:50:26;7.85;;;4.47;;
75680;SDS011;64294;49.176;16.626;2023-03-26T02:52:52;8.65;;;5.28;;
75680;SDS011;64294;49.176;16.626;2023-03-26T02:55:18;6.63;;;4.38;;
75680;SDS011;64294;49.176;16.626;2023-03-26T02:57:43;6.07;;;3.92;;
75680;SDS011;64294;49.176;16.626;2023-03-26T03:00:09;7.38;;;4.40;;
75680;SDS011;64294;49.176;16.626;2023-03-26T03:02:39;7.10;;;3.60;;
75680;SDS011;64294;49.176;16.626;2023-03-26T03:05:04;6.95;;;4.00;;
75680;SDS011;64294;49.176;16.626;2023-03-26T03:07:31;7.60;;;4.28;;
75680;SDS011;64294;49.176;16.626;2023-03-26T03:09:56;8.82;;;3.92;;
75680;SDS011;64294;49.176;16.626;2023-03-26T03:12:26;5.85;;;3.42;;
75680;SDS011;64294;49.176;16.626;2023-03-26T03:14:52;7.75;;;3.10;;
75680;SDS011;64294;49.176;16.626;2023-03-26T03:17:17;5.53;;;3.05;;
75680;SDS011;64294;49.176;16.626;2023-03-26T03:19:45;4.75;;;2.90;;
75680;SDS011;64294;49.176;16.626;2023-03-26T03:22:10;6.70;;;3.20;;
75680;SDS011;64294;49.176;16.626;2023-03-26T03:24:36;8.88;;;3.78;;
75680;SDS011;64294;49.176;16.626;2023-03-26T03:27:02;5.18;;;2.95;;
75680;SDS011;64294;49.176;16.626;2023-03-26T03:29:28;6.22;;;2.90;;
75680;SDS011;64294;49.176;16.626;2023-03-26T03:31:54;6.05;;;3.28;;
75680;SDS011;64294;49.176;16.626;2023-03-26T03:34:20;5.45;;;3.20;;
75680;SDS011;64294;49.176;16.626;2023-03-26T03:36:45;4.78;;;2.80;;
75680;SDS011;64294;49.176;16.626;2023-03-26T03:39:12;6.90;;;3.20;;
75680;SDS011;64294;49.176;16.626;2023-03-26T03:41:39;5.75;;;3.10;;
75680;SDS011;64294;49.176;16.626;2023-03-26T03:44:05;6.57;;;3.10;;
75680;SDS011;64294;49.176;16.626;2023-03-26T03:46:30;7.32;;;3.38;;
75680;SDS011;64294;49.176;16.626;2023-03-26T03:48:56;9.55;;;4.05;;
75680;SDS011;64294;49.176;16.626;2023-03-26T03:51:22;11.00;;;4.63;;
75680;SDS011;64294;49.176;16.626;2023-03-26T03:53:47;12.90;;;5.10;;
75680;SDS011;64294;49.176;16.626;2023-03-26T03:56:14;13.50;;;5.07;;
75680;SDS011;64294;49.176;16.626;2023-03-26T03:58:43;11.20;;;5.40;;
75680;SDS011;64294;49.176;16.626;2023-03-26T04:01:10;12.43;;;4.57;;
75680;SDS011;64294;49.176;16.626;2023-03-26T04:03:37;10.73;;;4.10;;
75680;SDS011;64294;49.176;16.626;2023-03-26T04:06:04;9.45;;;4.22;;
75680;SDS011;64294;49.176;16.626;2023-03-26T04:08:31;10.02;;;3.50;;
75680;SDS011;64294;49.176;16.626;2023-03-26T04:10:56;13.40;;;4.18;;
75680;SDS011;64294;49.176;16.626;2023-03-26T04:13:22;10.43;;;4.07;;
75680;SDS011;64294;49.176;16.626;2023-03-26T04:15:47;7.60;;;4.30;;
75680;SDS011;64294;49.176;16.626;2023-03-26T04:18:13;10.85;;;4.80;;
75680;SDS011;64294;49.176;16.626;2023-03-26T04:20:40;7.85;;;4.50;;
75680;SDS011;64294;49.176;16.626;2023-03-26T04:23:11;7.93;;;4.30;;
75680;SDS011;64294;49.176;16.626;2023-03-26T04:25:39;8.23;;;4.32;;
75680;SDS011;64294;49.176;16.626;2023-03-26T04:28:13;9.57;;;4.55;;
75680;SDS011;64294;49.176;16.626;2023-03-26T04:30:51;11.68;;;4.80;;
75680;SDS011;64294;49.176;16.626;2023-03-26T04:33:18;11.63;;;5.10;;
75680;SDS011;64294;49.176;16.626;2023-03-26T04:35:45;9.50;;;5.03;;
75680;SDS011;64294;49.176;16.626;2023-03-26T04:38:12;13.38;;;5.45;;
75680;SDS011;64294;49.176;16.626;2023-03-26T04:40:41;11.85;;;5.57;;
75680;SDS011;64294;49.176;16.626;2023-03-26T04:43:11;11.77;;;5.22;;
75680;SDS011;64294;49.176;16.626;2023-03-26T04:45:41;10.63;;;5.15;;
75680;SDS011;64294;49.176;16.626;2023-03-26T04:48:07;8.85;;;4.90;;
75680;SDS011;64294;49.176;16.626;2023-03-26T04:50:38;10.35;;;5.05;;
75680;SDS011;64294;49.176;16.626;2023-03-26T04:53:05;9.57;;;5.13;;
75680;SDS011;64294;49.176;16.626;2023-03-26T04:55:35;10.40;;;5.30;;
75680;SDS011;64294;49.176;16.626;2023-03-26T04:58:08;9.95;;;5.22;;
75680;SDS011;64294;49.176;16.626;2023-03-26T05:00:34;10.90;;;4.50;;
75680;SDS011;64294;49.176;16.626;2023-03-26T05:02:59;14.02;;;5.55;;
75680;SDS011;64294;49.176;16.626;2023-03-26T05:05:25;9.23;;;4.72;;
75680;SDS011;64294;49.176;16.626;2023-03-26T05:07:53;11.48;;;5.38;;
75680;SDS011;64294;49.176;16.626;2023-03-26T05:10:19;11.02;;;5.18;;
75680;SDS011;64294;49.176;16.626;2023-03-26T05:12:45;9.57;;;5.20;;
75680;SDS011;64294;49.176;16.626;2023-03-26T05:15:12;10.18;;;5.00;;
75680;SDS011;64294;49.176;16.626;2023-03-26T05:17:39;12.63;;;4.80;;
75680;SDS011;64294;49.176;16.626;2023-03-26T05:20:06;11.85;;;5.30;;
75680;SDS011;64294;49.176;16.626;2023-03-26T05:22:44;13.40;;;4.65;;
75680;SDS011;64294;49.176;16.626;2023-03-26T05:25:10;9.93;;;4.65;;
75680;SDS011;64294;49.176;16.626;2023-03-26T05:27:36;8.70;;;4.38;;
75680;SDS011;64294;49.176;16.626;2023-03-26T05:30:02;8.75;;;4.57;;
75680;SDS011;64294;49.176;16.626;2023-03-26T05:32:29;8.95;;;4.13;;
75680;SDS011;64294;49.176;16.626;2023-03-26T05:34:55;8.38;;;3.72;;
75680;SDS011;64294;49.176;16.626;2023-03-26T05:37:21;9.93;;;4.32;;
75680;SDS011;64294;49.176;16.626;2023-03-26T05:39:52;9.55;;;4.10;;
75680;SDS011;64294;49.176;16.626;2023-03-26T05:42:21;7.85;;;3.85;;
75680;SDS011;64294;49.176;16.626;2023-03-26T05:44:47;8.48;;;4.25;;
75680;SDS011;64294;49.176;16.626;2023-03-26T05:47:13;6.88;;;3.30;;
75680;SDS011;64294;49.176;16.626;2023-03-26T05:49:38;7.93;;;3.70;;
75680;SDS011;64294;49.176;16.626;2023-03-26T05:52:04;7.70;;;3.92;;
75680;SDS011;64294;49.176;16.626;2023-03-26T05:54:29;7.47;;;4.47;;
75680;SDS011;64294;49.176;16.626;2023-03-26T05:56:54;7.03;;;4.32;;
75680;SDS011;64294;49.176;16.626;2023-03-26T05:59:21;7.68;;;4.00;;
75680;SDS011;64294;49.176;16.626;2023-03-26T06:01:47;10.40;;;4.28;;
75680;SDS011;64294;49.176;16.626;2023-03-26T06:04:14;8.30;;;4.18;;
75680;SDS011;64294;49.176;16.626;2023-03-26T06:06:41;11.68;;;4.22;;
75680;SDS011;64294;49.176;16.626;2023-03-26T06:09:06;7.03;;;4.05;;
75680;SDS011;64294;49.176;16.626;2023-03-26T06:11:32;9.38;;;4.30;;
75680;SDS011;64294;49.176;16.626;2023-03-26T06:13:58;8.68;;;4.78;;
75680;SDS011;64294;49.176;16.626;2023-03-26T06:16:24;11.07;;;4.57;;
75680;SDS011;64294;49.176;16.626;2023-03-26T06:18:49;10.10;;;5.10;;
75680;SDS011;64294;49.176;16.626;2023-03-26T06:21:16;11.85;;;5.68;;
75680;SDS011;64294;49.176;16.626;2023-03-26T06:23:42;13.07;;;4.90;;
75680;SDS011;64294;49.176;16.626;2023-03-26T06:26:07;13.23;;;4.60;;
75680;SDS011;64294;49.176;16.626;2023-03-26T06:28:33;17.90;;;5.57;;
75680;SDS011;64294;49.176;16.626;2023-03-26T06:30:59;11.38;;;4.40;;
75680;SDS011;64294;49.176;16.626;2023-03-26T06:33:25;9.77;;;3.55;;
75680;SDS011;64294;49.176;16.626;2023-03-26T06:35:51;6.93;;;3.08;;
75680;SDS011;64294;49.176;16.626;2023-03-26T06:38:17;7.80;;;3.40;;
75680;SDS011;64294;49.176;16.626;2023-03-26T06:40:42;5.20;;;3.10;;
75680;SDS011;64294;49.176;16.626;2023-03-26T06:43:08;6.53;;;2.88;;
75680;SDS011;64294;49.176;16.626;2023-03-26T06:45:33;6.55;;;3.20;;
75680;SDS011;64294;49.176;16.626;2023-03-26T06:47:59;10.95;;;3.30;;
75680;SDS011;64294;49.176;16.626;2023-03-26T06:50:24;10.07;;;3.00;;
75680;SDS011;64294;49.176;16.626;2023-03-26T06:52:54;7.35;;;2.60;;
75680;SDS011;64294;49.176;16.626;2023-03-26T06:55:20;12.95;;;2.80;;
75680;SDS011;64294;49.176;16.626;2023-03-26T06:57:47;13.90;;;3.38;;
75680;SDS011;64294;49.176;16.626;2023-03-26T07:00:13;12.63;;;2.90;;
75680;SDS011;64294;49.176;16.626;2023-03-26T07:02:39;11.95;;;2.88;;
75680;SDS011;64294;49.176;16.626;2023-03-26T07:05:05;11.95;;;3.35;;
75680;SDS011;64294;49.176;16.626;2023-03-26T07:07:30;6.15;;;2.65;;
75680;SDS011;64294;49.176;16.626;2023-03-26T07:09:56;5.85;;;2.38;;
75680;SDS011;64294;49.176;16.626;2023-03-26T07:12:22;13.23;;;3.50;;
75680;SDS011;64294;49.176;16.626;2023-03-26T07:14:47;12.32;;;3.58;;
75680;SDS011;64294;49.176;16.626;2023-03-26T07:17:12;10.90;;;2.63;;
75680;SDS011;64294;49.176;16.626;2023-03-26T07:19:38;11.27;;;2.55;;
75680;SDS011;64294;49.176;16.626;2023-03-26T07:22:03;9.65;;;2.60;;
75680;SDS011;64294;49.176;16.626;2023-03-26T07:24:29;7.88;;;2.85;;
75680;SDS011;64294;49.176;16.626;2023-03-26T07:29:36;4.10;;;1.98;;
75680;SDS011;64294;49.176;16.626;2023-03-26T07:32:12;5.28;;;2.55;;
75680;SDS011;64294;49.176;16.626;2023-03-26T07:37:20;3.67;;;1.90;;
75680;SDS011;64294;49.176;16.626;2023-03-26T07:39:55;3.13;;;1.70;;
75680;SDS011;64294;49.176;16.626;2023-03-26T07:45:18;4.38;;;1.83;;
75680;SDS011;64294;49.176;16.626;2023-03-26T07:48:16;3.72;;;1.80;;
75680;SDS011;64294;49.176;16.626;2023-03-26T07:50:45;7.20;;;1.90;;
75680;SDS011;64294;49.176;16.626;2023-03-26T07:53:11;5.18;;;1.45;;
75680;SDS011;64294;49.176;16.626;2023-03-26T07:55:38;4.57;;;1.60;;
75680;SDS011;64294;49.176;16.626;2023-03-26T08:01:32;3.53;;;1.40;;
75680;SDS011;64294;49.176;16.626;2023-03-26T08:07:08;4.63;;;1.60;;
75680;SDS011;64294;49.176;16.626;2023-03-26T08:09:58;4.13;;;1.30;;
75680;SDS011;64294;49.176;16.626;2023-03-26T08:15:39;3.67;;;1.08;;
75680;SDS011;64294;49.176;16.626;2023-03-26T08:18:30;2.47;;;0.93;;
75680;SDS011;64294;49.176;16.626;2023-03-26T08:21:01;3.58;;;1.00;;
75680;SDS011;64294;49.176;16.626;2023-03-26T08:26:47;4.50;;;1.40;;
75680;SDS011;64294;49.176;16.626;2023-03-26T08:29:09;4.13;;;1.10;;
75680;SDS011;64294;49.176;16.626;2023-03-26T08:31:38;3.33;;;1.20;;
75680;SDS011;64294;49.176;16.626;2023-03-26T08:34:07;2.05;;;0.95;;
75680;SDS011;64294;49.176;16.626;2023-03-26T08:36:35;5.07;;;1.40;;
75680;SDS011;64294;49.176;16.626;2023-03-26T08:39:01;6.97;;;1.40;;
75680;SDS011;64294;49.176;16.626;2023-03-26T08:49:47;3.58;;;1.30;;
75680;SDS011;64294;49.176;16.626;2023-03-26T09:01:05;3.60;;;1.13;;
75680;SDS011;64294;49.176;16.626;2023-03-26T09:06:19;6.95;;;1.95;;
75680;SDS011;64294;49.176;16.626;2023-03-26T09:17:14;3.33;;;1.00;;
75680;SDS011;64294;49.176;16.626;2023-03-26T09:31:16;6.28;;;2.28;;
75680;SDS011;64294;49.176;16.626;2023-03-26T09:39:45;7.32;;;1.98;;
75680;SDS011;64294;49.176;16.626;2023-03-26T09:42:36;4.32;;;1.20;;
75680;SDS011;64294;49.176;16.626;2023-03-26T09:57:28;4.35;;;1.10;;
75680;SDS011;64294;49.176;16.626;2023-03-26T10:05:52;4.00;;;1.40;;
75680;SDS011;64294;49.176;16.626;2023-03-26T10:11:06;2.83;;;0.98;;
75680;SDS011;64294;49.176;16.626;2023-03-26T10:19:25;2.70;;;1.13;;
75680;SDS011;64294;49.176;16.626;2023-03-26T10:34:18;3.50;;;1.10;;
75680;SDS011;64294;49.176;16.626;2023-03-26T10:36:32;4.65;;;1.42;;
75680;SDS011;64294;49.176;16.626;2023-03-26T10:53:47;4.85;;;1.20;;
75680;SDS011;64294;49.176;16.626;2023-03-26T10:56:21;4.68;;;1.50;;
75680;SDS011;64294;49.176;16.626;2023-03-26T10:58:52;3.22;;;1.40;;
75680;SDS011;64294;49.176;16.626;2023-03-26T11:01:38;4.80;;;1.20;;
75680;SDS011;64294;49.176;16.626;2023-03-26T11:12:24;5.95;;;1.40;;
75680;SDS011;64294;49.176;16.626;2023-03-26T11:15:01;4.03;;;1.50;;
75680;SDS011;64294;49.176;16.626;2023-03-26T11:20:23;3.10;;;1.30;;
75680;SDS011;64294;49.176;16.626;2023-03-26T11:23:54;3.58;;;1.60;;
75680;SDS011;64294;49.176;16.626;2023-03-26T11:34:17;3.88;;;1.38;;
75680;SDS011;64294;49.176;16.626;2023-03-26T11:36:50;5.93;;;2.37;;
75680;SDS011;64294;49.176;16.626;2023-03-26T11:39:23;4.97;;;1.50;;
75680;SDS011;64294;49.176;16.626;2023-03-26T11:41:54;5.00;;;1.30;;
75680;SDS011;64294;49.176;16.626;2023-03-26T11:44:40;5.22;;;1.50;;
75680;SDS011;64294;49.176;16.626;2023-03-26T11:47:10;3.60;;;1.30;;
75680;SDS011;64294;49.176;16.626;2023-03-26T11:49:43;6.10;;;2.13;;
75680;SDS011;64294;49.176;16.626;2023-03-26T11:52:11;2.65;;;1.10;;
75680;SDS011;64294;49.176;16.626;2023-03-26T11:54:39;3.78;;;1.27;;
75680;SDS011;64294;49.176;16.626;2023-03-26T11:57:08;4.38;;;1.10;;
75680;SDS011;64294;49.176;16.626;2023-03-26T11:59:39;3.75;;;1.30;;
75680;SDS011;64294;49.176;16.626;2023-03-26T12:02:16;4.40;;;1.30;;
75680;SDS011;64294;49.176;16.626;2023-03-26T12:04:50;2.15;;;1.00;;
75680;SDS011;64294;49.176;16.626;2023-03-26T12:07:20;3.03;;;1.10;;
75680;SDS011;64294;49.176;16.626;2023-03-26T12:12:59;5.07;;;1.20;;
75680;SDS011;64294;49.176;16.626;2023-03-26T12:15:26;4.10;;;1.35;;
75680;SDS011;64294;49.176;16.626;2023-03-26T12:17:55;5.03;;;1.45;;
75680;SDS011;64294;49.176;16.626;2023-03-26T12:22:51;4.32;;;1.20;;
75680;SDS011;64294;49.176;16.626;2023-03-26T12:25:27;4.28;;;1.55;;
75680;SDS011;64294;49.176;16.626;2023-03-26T12:27:58;5.50;;;1.67;;
75680;SDS011;64294;49.176;16.626;2023-03-26T12:33:04;2.60;;;1.00;;
75680;SDS011;64294;49.176;16.626;2023-03-26T12:35:32;4.95;;;1.38;;
75680;SDS011;64294;49.176;16.626;2023-03-26T12:41:05;5.15;;;1.48;;
75680;SDS011;64294;49.176;16.626;2023-03-26T12:43:37;3.28;;;1.00;;
75680;SDS011;64294;49.176;16.626;2023-03-26T12:46:26;2.90;;;1.23;;
75680;SDS011;64294;49.176;16.626;2023-03-26T12:48:57;6.38;;;1.30;;
75680;SDS011;64294;49.176;16.626;2023-03-26T12:57:18;4.45;;;1.40;;
75680;SDS011;64294;49.176;16.626;2023-03-26T12:59:48;3.95;;;1.33;;
75680;SDS011;64294;49.176;16.626;2023-03-26T13:13:48;4.60;;;1.45;;
75680;SDS011;64294;49.176;16.626;2023-03-26T13:22:06;8.43;;;1.55;;
75680;SDS011;64294;49.176;16.626;2023-03-26T13:27:11;4.90;;;1.25;;
75680;SDS011;64294;49.176;16.626;2023-03-26T13:46:57;4.97;;;2.00;;
75680;SDS011;64294;49.176;16.626;2023-03-26T13:49:40;5.80;;;1.50;;
75680;SDS011;64294;49.176;16.626;2023-03-26T13:52:53;7.88;;;1.88;;
75680;SDS011;64294;49.176;16.626;2023-03-26T13:57:46;12.40;;;3.28;;
75680;SDS011;64294;49.176;16.626;2023-03-26T14:00:23;5.10;;;1.52;;
75680;SDS011;64294;49.176;16.626;2023-03-26T14:05:42;11.30;;;2.97;;
75680;SDS011;64294;49.176;16.626;2023-03-26T14:08:14;7.07;;;1.85;;
75680;SDS011;64294;49.176;16.626;2023-03-26T14:10:47;6.40;;;1.98;;
75680;SDS011;64294;49.176;16.626;2023-03-26T14:13:29;5.63;;;1.33;;
75680;SDS011;64294;49.176;16.626;2023-03-26T14:16:10;4.75;;;1.40;;
75680;SDS011;64294;49.176;16.626;2023-03-26T14:21:47;12.48;;;2.80;;
75680;SDS011;64294;49.176;16.626;2023-03-26T14:35:32;7.65;;;2.42;;
75680;SDS011;64294;49.176;16.626;2023-03-26T14:40:42;8.60;;;2.42;;
75680;SDS011;64294;49.176;16.626;2023-03-26T14:43:15;5.63;;;1.75;;
75680;SDS011;64294;49.176;16.626;2023-03-26T14:55:13;5.38;;;1.88;;
75680;SDS011;64294;49.176;16.626;2023-03-26T14:57:59;5.55;;;1.90;;
75680;SDS011;64294;49.176;16.626;2023-03-26T15:03:38;8.52;;;3.38;;
75680;SDS011;64294;49.176;16.626;2023-03-26T15:10:01;6.20;;;2.20;;
75680;SDS011;64294;49.176;16.626;2023-03-26T15:12:39;7.10;;;1.63;;
75680;SDS011;64294;49.176;16.626;2023-03-26T15:43:27;17.52;;;4.78;;
75680;SDS011;64294;49.176;16.626;2023-03-26T15:49:07;10.75;;;2.47;;
75680;SDS011;64294;49.176;16.626;2023-03-26T16:08:26;5.20;;;1.80;;
75680;SDS011;64294;49.176;16.626;2023-03-26T16:10:55;4.40;;;1.63;;
75680;SDS011;64294;49.176;16.626;2023-03-26T16:13:26;4.80;;;1.95;;
75680;SDS011;64294;49.176;16.626;2023-03-26T16:18:36;4.45;;;1.67;;
75680;SDS011;64294;49.176;16.626;2023-03-26T16:23:54;4.72;;;2.03;;
75680;SDS011;64294;49.176;16.626;2023-03-26T16:34:47;5.30;;;1.80;;
75680;SDS011;64294;49.176;16.626;2023-03-26T16:42:40;8.43;;;3.40;;
75680;SDS011;64294;49.176;16.626;2023-03-26T16:45:16;8.10;;;2.53;;
75680;SDS011;64294;49.176;16.626;2023-03-26T16:50:41;5.90;;;1.80;;
75680;SDS011;64294;49.176;16.626;2023-03-26T16:58:54;6.50;;;3.80;;
75680;SDS011;64294;49.176;16.626;2023-03-26T17:01:33;6.90;;;3.03;;
75680;SDS011;64294;49.176;16.626;2023-03-26T17:09:51;7.50;;;3.47;;
75680;SDS011;64294;49.176;16.626;2023-03-26T17:20:38;8.65;;;4.80;;
75680;SDS011;64294;49.176;16.626;2023-03-26T17:31:42;4.63;;;2.53;;
75680;SDS011;64294;49.176;16.626;2023-03-26T17:44:43;6.28;;;2.85;;
75680;SDS011;64294;49.176;16.626;2023-03-26T17:49:52;8.65;;;2.92;;
75680;SDS011;64294;49.176;16.626;2023-03-26T17:52:43;5.50;;;2.42;;
75680;SDS011;64294;49.176;16.626;2023-03-26T17:55:17;5.50;;;2.25;;
75680;SDS011;64294;49.176;16.626;2023-03-26T17:57:46;6.35;;;2.63;;
75680;SDS011;64294;49.176;16.626;2023-03-26T18:00:19;6.85;;;3.25;;
75680;SDS011;64294;49.176;16.626;2023-03-26T18:02:51;8.25;;;2.80;;
75680;SDS011;64294;49.176;16.626;2023-03-26T18:05:41;8.30;;;2.88;;
75680;SDS011;64294;49.176;16.626;2023-03-26T18:19:03;19.42;;;13.38;;
75680;SDS011;64294;49.176;16.626;2023-03-26T18:21:42;19.02;;;12.48;;
75680;SDS011;64294;49.176;16.626;2023-03-26T18:24:14;16.20;;;9.68;;
75680;SDS011;64294;49.176;16.626;2023-03-26T18:27:05;12.93;;;7.45;;
75680;SDS011;64294;49.176;16.626;2023-03-26T18:29:34;11.05;;;6.60;;
75680;SDS011;64294;49.176;16.626;2023-03-26T18:34:33;10.77;;;6.07;;
75680;SDS011;64294;49.176;16.626;2023-03-26T18:39:38;11.15;;;5.70;;
75680;SDS011;64294;49.176;16.626;2023-03-26T18:42:19;12.77;;;6.07;;
75680;SDS011;64294;49.176;16.626;2023-03-26T18:44:46;24.40;;;11.15;;
75680;SDS011;64294;49.176;16.626;2023-03-26T18:47:14;15.55;;;8.13;;
75680;SDS011;64294;49.176;16.626;2023-03-26T18:49:41;12.38;;;6.35;;
75680;SDS011;64294;49.176;16.626;2023-03-26T18:52:12;12.18;;;5.90;;
75680;SDS011;64294;49.176;16.626;2023-03-26T18:54:40;13.52;;;5.50;;
75680;SDS011;64294;49.176;16.626;2023-03-26T18:57:09;9.43;;;5.20;;
75680;SDS011;64294;49.176;16.626;2023-03-26T18:59:36;10.88;;;4.85;;
75680;SDS011;64294;49.176;16.626;2023-03-26T19:02:10;11.60;;;5.25;;
75680;SDS011;64294;49.176;16.626;2023-03-26T19:04:40;9.85;;;5.50;;
75680;SDS011;64294;49.176;16.626;2023-03-26T19:07:08;16.63;;;8.60;;
75680;SDS011;64294;49.176;16.626;2023-03-26T19:09:37;11.45;;;5.43;;
75680;SDS011;64294;49.176;16.626;2023-03-26T19:12:15;11.82;;;6.07;;
75680;SDS011;64294;49.176;16.626;2023-03-26T19:14:54;35.00;;;16.55;;
75680;SDS011;64294;49.176;16.626;2023-03-26T19:17:46;26.00;;;11.82;;
75680;SDS011;64294;49.176;16.626;2023-03-26T19:20:21;12.98;;;6.60;;
75680;SDS011;64294;49.176;16.626;2023-03-26T19:22:48;12.90;;;6.45;;
75680;SDS011;64294;49.176;16.626;2023-03-26T19:25:35;10.05;;;5.85;;
75680;SDS011;64294;49.176;16.626;2023-03-26T19:28:03;13.80;;;7.00;;
75680;SDS011;64294;49.176;16.626;2023-03-26T19:30:34;12.30;;;6.95;;
75680;SDS011;64294;49.176;16.626;2023-03-26T19:33:31;13.07;;;7.13;;
75680;SDS011;64294;49.176;16.626;2023-03-26T19:36:03;15.55;;;8.90;;
75680;SDS011;64294;49.176;16.626;2023-03-26T19:39:01;18.58;;;8.50;;
75680;SDS011;64294;49.176;16.626;2023-03-26T19:41:35;23.33;;;12.25;;
75680;SDS011;64294;49.176;16.626;2023-03-26T19:44:24;42.20;;;20.02;;
75680;SDS011;64294;49.176;16.626;2023-03-26T19:46:51;26.33;;;11.32;;
75680;SDS011;64294;49.176;16.626;2023-03-26T19:49:30;23.05;;;9.98;;
75680;SDS011;64294;49.176;16.626;2023-03-26T19:54:47;16.95;;;7.15;;
75680;SDS011;64294;49.176;16.626;2023-03-26T19:57:16;14.40;;;6.85;;
75680;SDS011;64294;49.176;16.626;2023-03-26T19:59:41;13.57;;;6.70;;
75680;SDS011;64294;49.176;16.626;2023-03-26T20:02:10;14.00;;;7.03;;
75680;SDS011;64294;49.176;16.626;2023-03-26T20:04:36;12.48;;;6.70;;
75680;SDS011;64294;49.176;16.626;2023-03-26T20:07:07;13.02;;;6.38;;
75680;SDS011;64294;49.176;16.626;2023-03-26T20:09:35;21.92;;;9.23;;
75680;SDS011;64294;49.176;16.626;2023-03-26T20:12:00;14.35;;;6.78;;
75680;SDS011;64294;49.176;16.626;2023-03-26T20:14:26;16.10;;;7.82;;
75680;SDS011;64294;49.176;16.626;2023-03-26T20:16:51;15.40;;;6.75;;
75680;SDS011;64294;49.176;16.626;2023-03-26T20:19:17;14.10;;;6.45;;
75680;SDS011;64294;49.176;16.626;2023-03-26T20:21:43;13.10;;;7.50;;
75680;SDS011;64294;49.176;16.626;2023-03-26T20:24:11;17.15;;;7.78;;
75680;SDS011;64294;49.176;16.626;2023-03-26T20:26:40;16.75;;;7.95;;
75680;SDS011;64294;49.176;16.626;2023-03-26T20:29:06;14.93;;;8.40;;
75680;SDS011;64294;49.176;16.626;2023-03-26T20:31:32;17.08;;;8.85;;
75680;SDS011;64294;49.176;16.626;2023-03-26T20:33:57;14.90;;;8.20;;
75680;SDS011;64294;49.176;16.626;2023-03-26T20:36:23;15.75;;;7.90;;
75680;SDS011;64294;49.176;16.626;2023-03-26T20:38:51;14.43;;;7.85;;
75680;SDS011;64294;49.176;16.626;2023-03-26T20:41:19;16.98;;;8.40;;
75680;SDS011;64294;49.176;16.626;2023-03-26T20:43:47;28.15;;;13.38;;
75680;SDS011;64294;49.176;16.626;2023-03-26T20:46:20;19.23;;;9.38;;
75680;SDS011;64294;49.176;16.626;2023-03-26T20:48:47;15.52;;;8.45;;
75680;SDS011;64294;49.176;16.626;2023-03-26T20:51:13;14.02;;;7.40;;
75680;SDS011;64294;49.176;16.626;2023-03-26T20:53:39;14.20;;;7.80;;
75680;SDS011;64294;49.176;16.626;2023-03-26T20:56:15;14.57;;;7.60;;
75680;SDS011;64294;49.176;16.626;2023-03-26T20:58:43;14.00;;;7.38;;